createdAt,value
2022-11-28T00:09:30.156Z,116.40
2022-11-28T00:19:33.231Z,112.20
2022-11-28T00:29:36.323Z,110.60
2022-11-28T00:39:39.337Z,108.00
2022-11-28T00:49:42.629Z,110.30
2022-11-28T00:59:45.717Z,117.80
2022-11-28T01:09:48.835Z,108.90
2022-11-28T01:19:51.961Z,107.40
2022-11-28T01:29:55.112Z,102.60
2022-11-28T01:39:58.588Z,106.00
2022-11-28T01:50:04.284Z,110.50
2022-11-28T02:00:17.038Z,107.70
2022-11-28T02:10:32.804Z,109.80
2022-11-28T02:20:54.418Z,100.00
2022-11-28T02:31:28.908Z,103.30
2022-11-28T02:41:40.794Z,105.60
2022-11-28T02:52:06.415Z,106.20
2022-11-28T03:12:36.903Z,102.10
2022-11-28T03:22:58.962Z,98.40
2022-11-28T03:33:04.302Z,95.20
2022-11-28T03:43:13.868Z,95.80
2022-11-28T03:53:23.104Z,97.10
2022-11-28T04:03:38.385Z,94.60
2022-11-28T04:13:50.191Z,91.40
2022-11-28T04:23:56.619Z,93.90
2022-11-28T04:34:04.072Z,92.80
2022-11-28T04:44:16.120Z,89.30
2022-11-28T04:54:26.619Z,87.20
2022-11-28T05:04:29.777Z,82.90
2022-11-28T05:14:32.903Z,84.30
2022-11-28T05:24:36.015Z,82.30
2022-11-28T05:34:39.505Z,86.80
2022-11-28T05:44:42.786Z,83.80
2022-11-28T05:54:45.780Z,83.00
2022-11-28T06:04:48.831Z,88.20
2022-11-28T06:14:51.891Z,102.40
2022-11-28T06:24:55.031Z,98.50
2022-11-28T06:34:58.159Z,87.70
2022-11-28T06:45:02.218Z,90.50
2022-11-28T06:55:05.763Z,101.40
2022-11-28T07:05:09.054Z,92.20
2022-11-28T07:15:12.530Z,118.60
2022-11-28T07:25:16.179Z,136.70
2022-11-28T07:35:19.370Z,97.20
2022-11-28T07:45:22.978Z,89.70
2022-11-28T07:55:26.153Z,87.50
2022-11-28T08:05:29.277Z,83.70
2022-11-28T08:15:32.515Z,74.90
2022-11-28T08:25:35.607Z,89.70
2022-11-28T08:35:40.058Z,76.20
2022-11-28T08:45:44.729Z,80.70
2022-11-28T08:55:47.908Z,79.10
2022-11-28T09:05:51.284Z,78.10
2022-11-28T09:15:55.557Z,71.80
2022-11-28T09:25:58.667Z,72.80
2022-11-28T09:36:06.709Z,70.60
2022-11-28T09:46:18.700Z,64.90
2022-11-28T09:56:22.637Z,62.70
2022-11-28T10:06:31.890Z,64.90
2022-11-28T10:16:47.459Z,58.10
2022-11-28T10:26:59.601Z,62.20
2022-11-28T10:37:20.052Z,59.40
2022-11-28T10:47:39.446Z,52.30
2022-11-28T10:58:08.800Z,45.60
2022-11-28T11:08:16.170Z,43.90
2022-11-28T11:18:28.881Z,37.20
2022-11-28T11:28:31.901Z,35.10
2022-11-28T11:38:38.076Z,39.70
2022-11-28T11:48:47.780Z,40.10
2022-11-28T11:58:54.661Z,38.20
2022-11-28T12:09:25.273Z,42.70
2022-11-28T12:19:37.541Z,45.30
2022-11-28T12:30:29.285Z,44.30
2022-11-28T12:40:38.448Z,52.20
2022-11-28T12:50:52.702Z,56.90
2022-11-28T13:01:03.475Z,57.60
2022-11-28T13:11:19.788Z,67.70
2022-11-28T13:21:40.060Z,57.20
2022-11-28T13:31:51.344Z,61.40
2022-11-28T13:42:36.007Z,60.90
2022-11-28T13:52:29.531Z,57.80
2022-11-28T14:02:38.708Z,62.10
2022-11-28T14:12:51.808Z,59.10
2022-11-28T14:23:49.519Z,60.20
2022-11-28T14:34:10.547Z,56.30
2022-11-28T14:44:47.750Z,62.30
2022-11-28T14:54:53.138Z,60.90
2022-11-28T15:05:13.921Z,63.40
2022-11-28T15:15:20.572Z,65.70
2022-11-28T15:25:26.616Z,55.00
2022-11-28T15:35:30.847Z,59.30
2022-11-28T15:45:36.006Z,59.60
2022-11-28T15:55:39.189Z,59.50
2022-11-28T16:05:43.843Z,62.90
2022-11-28T16:15:51.663Z,67.90
2022-11-28T16:26:04.259Z,63.50
2022-11-28T16:36:34.533Z,69.10
2022-11-28T16:46:54.088Z,63.70
2022-11-28T16:57:19.186Z,63.00
2022-11-28T17:07:24.319Z,69.60
2022-11-28T17:17:27.900Z,59.60
2022-11-28T17:27:30.957Z,60.40
2022-11-28T17:37:34.102Z,60.10
2022-11-28T17:47:37.206Z,57.40
2022-11-28T17:57:40.310Z,54.40
2022-11-28T18:07:43.559Z,58.10
2022-11-28T18:17:48.591Z,54.70
2022-11-28T18:27:51.961Z,51.40
2022-11-28T18:37:54.985Z,57.60
2022-11-28T18:48:00.410Z,57.80
2022-11-28T18:58:04.145Z,62.60
2022-11-28T19:08:07.407Z,51.20
2022-11-28T19:18:10.680Z,59.60
2022-11-28T19:28:14.317Z,60.30
2022-11-28T19:38:17.810Z,59.30
2022-11-28T19:48:21.527Z,66.70
2022-11-28T19:58:25.790Z,57.50
2022-11-28T20:08:29.101Z,55.90
2022-11-28T20:18:33.709Z,57.00
2022-11-28T20:28:38.526Z,54.90
2022-11-28T20:38:41.912Z,53.80
2022-11-28T20:48:45.793Z,53.10
2022-11-28T20:58:49.292Z,47.40
2022-11-28T21:08:52.558Z,40.60
2022-11-28T21:18:57.426Z,40.80
2022-11-28T21:29:06.214Z,39.70
2022-11-28T21:39:15.563Z,38.50
2022-11-28T21:49:18.878Z,40.10
2022-11-28T21:59:22.470Z,38.60
2022-11-28T22:09:25.755Z,42.00
2022-11-28T22:19:29.408Z,41.30
2022-11-28T22:29:32.837Z,42.30
2022-11-28T22:39:36.199Z,39.70
2022-11-28T22:49:39.457Z,42.80
2022-11-28T22:59:43.631Z,43.80
2022-11-28T23:09:46.841Z,39.20
2022-11-28T23:19:50.140Z,39.00
2022-11-28T23:29:53.440Z,41.30
2022-11-28T23:39:56.773Z,37.30
2022-11-28T23:49:59.938Z,42.40
